Time;durP1;ratioP1;P1;durP2;ratioP2;P2;SDS_P1;SDS_P2;PMS_P1;PMS_P2;Temp;Humidity;BMP_temperature;BMP_pressure;BME280_temperature;BME280_humidity;BME280_pressure;Samples;Min_cycle;Max_cycle;Signal;HPM_P1;HPM_P2
2023/04/25 00:01:21;;;;;;;;;;;;;;;20.06;41.47;100024.31;103791;1288;76157;-83
2023/04/25 00:03:47;;;;;;;;;;;;;;;20.06;41.61;100022.69;103798;1288;62127;-83
2023/04/25 00:06:13;;;;;;;;;;;;;;;20.05;41.56;100015.42;103840;1282;62155;-83
2023/04/25 00:08:39;;;;;;;;;;;;;;;20.05;41.68;100015.96;103856;1288;62548;-83
2023/04/25 00:11:04;;;;;;;;;;;;;;;20.05;41.60;100012.20;103718;1288;62187;-83
2023/04/25 00:13:30;;;;;;;;;;;;;;;20.05;41.66;100015.42;103752;1288;62157;-83
2023/04/25 00:15:57;;;;;;;;;;;;;;;20.05;41.51;100013.64;103766;1282;62629;-84
2023/04/25 00:18:23;;;;;;;;;;;;;;;20.05;41.67;100012.58;103857;1287;62143;-83
2023/04/25 00:20:48;;;;;;;;;;;;;;;20.05;41.66;100013.48;103827;1282;62239;-83
2023/04/25 00:23:18;;;;;;;;;;;;;;;20.05;41.67;100016.16;103787;1282;75167;-83
2023/04/25 00:25:44;;;;;;;;;;;;;;;20.05;41.64;100017.77;103785;1287;62068;-83
2023/04/25 00:28:10;;;;;;;;;;;;;;;20.05;41.62;100016.33;103890;1283;62154;-83
2023/04/25 00:30:36;;;;;;;;;;;;;;;20.04;41.58;100016.92;103736;1283;62258;-83
2023/04/25 00:33:01;;;;;;;;;;;;;;;20.05;41.70;100018.11;103577;1289;62280;-83
2023/04/25 00:35:27;;;;;;;;;;;;;;;20.05;41.65;100018.85;103642;1282;62260;-82
2023/04/25 00:37:54;;;;;;;;;;;;;;;20.05;41.78;100020.64;103781;1288;62191;-82
2023/04/25 00:40:20;;;;;;;;;;;;;;;20.05;41.83;100025.45;103777;1282;62188;-83
2023/04/25 00:42:45;;;;;;;;;;;;;;;20.05;41.82;100031.52;103790;1283;62261;-83
2023/04/25 00:45:15;;;;;;;;;;;;;;;20.04;41.76;100027.11;103919;1282;63239;-83
2023/04/25 00:47:41;;;;;;;;;;;;;;;20.04;41.65;100023.36;103752;1286;62782;-82
2023/04/25 00:50:07;;;;;;;;;;;;;;;20.05;41.68;100019.59;103778;1283;62171;-83
2023/04/25 00:52:33;;;;;;;;;;;;;;;20.04;41.79;100017.46;103779;1288;62391;-84
2023/04/25 00:54:58;;;;;;;;;;;;;;;20.04;41.96;100019.08;103724;1282;62200;-83
2023/04/25 00:57:25;;;;;;;;;;;;;;;20.04;41.79;100018.36;103673;1283;62174;-82
2023/04/25 00:59:51;;;;;;;;;;;;;;;20.04;41.68;100018.17;103769;1288;62483;-83
2023/04/25 01:02:16;;;;;;;;;;;;;;;20.04;41.90;100010.70;103769;1283;62116;-82
2023/04/25 01:04:42;;;;;;;;;;;;;;;20.04;41.85;100012.13;103761;1288;71591;-83
2023/04/25 01:07:08;;;;;;;;;;;;;;;20.04;41.85;100017.48;103767;1288;62202;-82
2023/04/25 01:09:33;;;;;;;;;;;;;;;20.03;41.90;100022.34;103747;1288;62245;-83
2023/04/25 01:12:00;;;;;;;;;;;;;;;20.04;41.90;100026.43;103785;1283;62711;-83
2023/04/25 01:14:27;;;;;;;;;;;;;;;20.04;41.90;100023.20;103762;1283;62085;-84
2023/04/25 01:16:52;;;;;;;;;;;;;;;20.04;41.80;100019.29;103949;1283;62258;-83
2023/04/25 01:19:18;;;;;;;;;;;;;;;20.03;42.02;100019.31;103798;1282;62165;-84
2023/04/25 01:21:43;;;;;;;;;;;;;;;20.03;41.95;100020.05;103814;1282;62267;-82
2023/04/25 01:24:09;;;;;;;;;;;;;;;20.03;41.92;100008.95;103867;1289;62073;-83
2023/04/25 01:26:35;;;;;;;;;;;;;;;20.03;41.94;100002.54;103809;1283;62192;-83
2023/04/25 01:29:01;;;;;;;;;;;;;;;20.03;42.04;100003.59;103748;1283;62253;-84
2023/04/25 01:31:27;;;;;;;;;;;;;;;20.03;41.86;99996.11;103800;1288;62200;-83
2023/04/25 01:33:53;;;;;;;;;;;;;;;20.03;41.97;99986.13;103769;1283;62191;-83
2023/04/25 01:36:18;;;;;;;;;;;;;;;20.03;41.92;99985.60;103822;1284;62800;-83
2023/04/25 01:38:46;;;;;;;;;;;;;;;20.03;42.01;99983.84;103866;1282;63272;-83
2023/04/25 01:41:11;;;;;;;;;;;;;;;20.03;41.99;99981.87;103736;1283;76472;-83
2023/04/25 01:43:37;;;;;;;;;;;;;;;20.03;42.05;99994.76;103783;1288;62200;-83
2023/04/25 01:46:02;;;;;;;;;;;;;;;20.02;41.99;100002.41;103784;1288;62261;-83
2023/04/25 01:48:28;;;;;;;;;;;;;;;20.03;42.08;100004.02;103868;1285;62791;-82
2023/04/25 01:50:53;;;;;;;;;;;;;;;20.03;41.92;99998.13;103852;1288;62116;-83
2023/04/25 01:53:19;;;;;;;;;;;;;;;20.03;42.13;100000.45;103843;1287;63518;-83
2023/04/25 01:55:44;;;;;;;;;;;;;;;20.03;42.11;100005.41;103785;1288;62234;-83
2023/04/25 01:58:12;;;;;;;;;;;;;;;20.02;42.13;99999.94;103712;1288;62127;-83
2023/04/25 02:00:39;;;;;;;;;;;;;;;20.03;41.97;100003.48;103745;1287;62904;-82
2023/04/25 02:03:05;;;;;;;;;;;;;;;20.02;41.98;99998.86;103700;1283;62188;-82
2023/04/25 02:05:34;;;;;;;;;;;;;;;20.02;42.13;99996.72;103746;1288;62182;-83
2023/04/25 02:07:59;;;;;;;;;;;;;;;20.02;42.13;99992.77;103786;1288;62151;-83
2023/04/25 02:10:25;;;;;;;;;;;;;;;20.02;42.09;99993.34;103799;1288;62255;-82
2023/04/25 02:12:51;;;;;;;;;;;;;;;20.02;42.09;99989.95;103748;1289;62202;-83
2023/04/25 02:15:16;;;;;;;;;;;;;;;20.02;42.07;99986.56;103790;1283;62188;-82
2023/04/25 02:17:42;;;;;;;;;;;;;;;20.02;42.22;99983.33;103873;1288;62787;-83
2023/04/25 02:20:07;;;;;;;;;;;;;;;20.02;42.12;99984.23;103763;1283;62205;-83
2023/04/25 02:22:33;;;;;;;;;;;;;;;20.02;42.18;99984.81;103764;1288;62219;-83
2023/04/25 02:25:00;;;;;;;;;;;;;;;20.02;42.08;99983.91;103856;1287;62213;-83
2023/04/25 02:27:25;;;;;;;;;;;;;;;20.02;42.16;99981.73;103745;1283;62239;-82
2023/04/25 02:29:51;;;;;;;;;;;;;;;20.01;42.22;99979.11;103756;1288;62181;-82
2023/04/25 02:32:17;;;;;;;;;;;;;;;20.01;42.35;99977.51;103819;1283;62123;-83
2023/04/25 02:34:42;;;;;;;;;;;;;;;20.02;42.23;99975.54;103833;1283;62124;-83
2023/04/25 02:37:08;;;;;;;;;;;;;;;20.02;42.24;99971.42;103595;1288;75376;-84
2023/04/25 02:39:33;;;;;;;;;;;;;;;20.02;42.09;99972.66;103808;1282;62636;-83
2023/04/25 02:42:00;;;;;;;;;;;;;;;20.01;42.31;99964.85;103761;1288;62148;-83
2023/04/25 02:44:26;;;;;;;;;;;;;;;20.01;42.29;99960.39;103739;1283;62129;-83
2023/04/25 02:46:51;;;;;;;;;;;;;;;20.01;42.27;99962.88;103780;1288;63343;-83
2023/04/25 02:49:17;;;;;;;;;;;;;;;20.01;42.28;99959.88;103782;1288;62113;-83
2023/04/25 02:51:43;;;;;;;;;;;;;;;20.01;42.32;99956.83;103791;1283;62698;-83
2023/04/25 02:54:08;;;;;;;;;;;;;;;20.01;42.34;99948.06;103761;1282;63354;-82
2023/04/25 02:56:34;;;;;;;;;;;;;;;20.01;42.26;99942.73;103752;1288;62170;-84
2023/04/25 02:58:59;;;;;;;;;;;;;;;20.01;42.27;99932.02;103751;1288;62195;-83
2023/04/25 03:01:25;;;;;;;;;;;;;;;20.01;42.23;99927.20;103671;1288;62270;-83
2023/04/25 03:03:50;;;;;;;;;;;;;;;20.01;42.25;99931.48;103767;1288;62227;-84
2023/04/25 03:06:16;;;;;;;;;;;;;;;20.01;42.25;99933.10;103849;1283;62698;-83
2023/04/25 03:08:41;;;;;;;;;;;;;;;20.01;42.25;99935.96;103799;1286;62230;-83
2023/04/25 03:11:07;;;;;;;;;;;;;;;20.00;42.41;99932.23;103842;1289;62947;-83
2023/04/25 03:13:32;;;;;;;;;;;;;;;20.00;42.45;99928.11;103778;1288;62200;-83
2023/04/25 03:15:58;;;;;;;;;;;;;;;20.00;42.46;99928.48;103790;1288;62184;-82
2023/04/25 03:18:23;;;;;;;;;;;;;;;20.00;42.41;99928.30;103752;1286;62188;-83
2023/04/25 03:20:48;;;;;;;;;;;;;;;20.01;42.49;99931.86;103744;1283;63265;-82
2023/04/25 03:23:14;;;;;;;;;;;;;;;20.00;42.40;99929.55;103669;1289;62637;-83
2023/04/25 03:25:40;;;;;;;;;;;;;;;20.00;42.32;99929.73;103746;1288;62200;-82
2023/04/25 03:28:06;;;;;;;;;;;;;;;20.00;42.41;99931.51;103865;1288;62347;-83
2023/04/25 03:30:31;;;;;;;;;;;;;;;20.00;42.48;99929.75;103672;1288;62164;-84
2023/04/25 03:32:57;;;;;;;;;;;;;;;20.00;42.58;99930.09;103871;1288;62237;-82
2023/04/25 03:35:23;;;;;;;;;;;;;;;20.00;42.47;99933.13;103797;1283;62283;-82
2023/04/25 03:37:49;;;;;;;;;;;;;;;20.00;42.51;99936.01;103822;1288;62209;-83
2023/04/25 03:40:14;;;;;;;;;;;;;;;20.01;42.51;99931.49;103778;1287;63350;-83
2023/04/25 03:42:40;;;;;;;;;;;;;;;20.00;42.50;99931.17;103786;1283;63297;-83
2023/04/25 03:45:06;;;;;;;;;;;;;;;20.00;42.53;99933.65;103798;1287;73179;-83
2023/04/25 03:47:31;;;;;;;;;;;;;;;20.00;42.52;99935.61;103779;1283;62201;-84
2023/04/25 03:49:57;;;;;;;;;;;;;;;20.00;42.53;99937.05;103722;1288;62112;-83
2023/04/25 03:52:22;;;;;;;;;;;;;;;20.00;42.58;99935.66;103818;1289;62222;-83
2023/04/25 03:54:48;;;;;;;;;;;;;;;20.00;42.42;99941.73;103813;1289;62149;-83
2023/04/25 03:57:13;;;;;;;;;;;;;;;19.99;42.64;99939.63;103644;1288;62175;-83
2023/04/25 03:59:39;;;;;;;;;;;;;;;19.99;42.55;99941.27;103865;1298;62178;-84
2023/04/25 04:02:05;;;;;;;;;;;;;;;19.98;42.41;99943.33;103918;1289;63339;-82
2023/04/25 04:04:30;;;;;;;;;;;;;;;19.98;42.66;99943.00;103850;1285;62302;-82
2023/04/25 04:06:57;;;;;;;;;;;;;;;19.97;42.54;99945.19;103920;1288;63298;-82
2023/04/25 04:09:23;;;;;;;;;;;;;;;19.97;42.53;99950.55;103819;1289;62225;-83
2023/04/25 04:11:48;;;;;;;;;;;;;;;19.96;42.52;99946.14;103864;1288;62167;-82
2023/04/25 04:14:17;;;;;;;;;;;;;;;19.96;42.62;99944.94;103832;1289;62794;-83
2023/04/25 04:16:42;;;;;;;;;;;;;;;19.96;42.53;99949.75;103872;1286;62184;-83
2023/04/25 04:19:08;;;;;;;;;;;;;;;19.95;42.54;99954.23;103872;1288;63352;-84
2023/04/25 04:21:36;;;;;;;;;;;;;;;19.96;42.33;99952.96;103860;1289;62246;-83
2023/04/25 04:24:01;;;;;;;;;;;;;;;19.95;42.39;99953.54;104008;1291;62793;-82
2023/04/25 04:26:27;;;;;;;;;;;;;;;19.95;42.36;99947.85;104170;1283;62319;-82
2023/04/25 04:28:54;;;;;;;;;;;;;;;19.95;42.32;99948.23;104155;1288;63448;-82
2023/04/25 04:31:45;;;;;;;;;;;;;;;19.94;42.52;99950.95;104249;1288;62108;-83
2023/04/25 04:34:11;;;;;;;;;;;;;;;19.93;42.40;99956.02;103935;1294;63356;-82
2023/04/25 04:36:36;;;;;;;;;;;;;;;19.91;42.41;99957.75;104178;1294;62066;-82
2023/04/25 04:39:03;;;;;;;;;;;;;;;19.90;42.49;99962.98;103839;1290;62063;-82
2023/04/25 04:41:30;;;;;;;;;;;;;;;19.88;42.43;99959.10;104092;1289;63234;-82
2023/04/25 04:43:56;;;;;;;;;;;;;;;19.86;42.51;99959.64;103429;1295;62887;-82
2023/04/25 04:46:21;;;;;;;;;;;;;;;19.83;42.57;99960.19;103426;1289;62465;-81
2023/04/25 04:48:47;;;;;;;;;;;;;;;19.80;42.77;99969.68;103410;1295;62288;-82
2023/04/25 04:51:13;;;;;;;;;;;;;;;19.78;42.48;99969.29;103825;1290;62877;-82
2023/04/25 04:53:38;;;;;;;;;;;;;;;19.77;42.53;99975.67;103646;1295;75099;-82
2023/04/25 04:56:04;;;;;;;;;;;;;;;19.75;42.68;99978.08;104215;1295;62223;-82
2023/04/25 04:58:31;;;;;;;;;;;;;;;19.74;42.76;99987.46;104109;1295;60553;-82
2023/04/25 05:00:57;;;;;;;;;;;;;;;19.73;42.71;99990.61;103930;1290;62896;-83
2023/04/25 05:03:22;;;;;;;;;;;;;;;19.70;42.79;99987.64;103986;1289;62217;-82
2023/04/25 05:05:48;;;;;;;;;;;;;;;19.68;42.80;99984.98;103765;1294;62377;-83
2023/04/25 05:08:13;;;;;;;;;;;;;;;19.66;43.02;99981.89;103928;1290;60627;-82
2023/04/25 05:10:41;;;;;;;;;;;;;;;19.63;42.86;99982.84;104421;1289;62156;-82
2023/04/25 05:13:30;;;;;;;;;;;;;;;19.62;43.04;99981.08;104615;1287;72300;-83
2023/04/25 05:15:55;;;;;;;;;;;;;;;19.62;43.24;99986.83;104237;1289;75491;-83
2023/04/25 05:18:21;;;;;;;;;;;;;;;19.63;43.27;99989.80;104028;1289;62146;-82
2023/04/25 05:20:48;;;;;;;;;;;;;;;19.63;43.41;99986.40;104404;1289;62290;-82
2023/04/25 05:23:14;;;;;;;;;;;;;;;19.64;43.26;99982.58;104229;1291;62400;-82
2023/04/25 05:25:39;;;;;;;;;;;;;;;19.64;43.21;99984.67;104528;1290;62134;-81
2023/04/25 05:28:05;;;;;;;;;;;;;;;19.64;43.22;99985.02;104482;1294;62121;-82
2023/04/25 05:30:31;;;;;;;;;;;;;;;19.64;43.39;99981.63;104631;1296;63380;-82
2023/04/25 05:32:56;;;;;;;;;;;;;;;19.65;43.46;99986.73;104074;1290;62103;-82
2023/04/25 05:35:22;;;;;;;;;;;;;;;19.65;43.36;99987.11;103846;1294;62182;-82
2023/04/25 05:37:47;;;;;;;;;;;;;;;19.66;43.43;99985.45;103981;1295;62137;-82
2023/04/25 05:40:13;;;;;;;;;;;;;;;19.66;43.68;99981.36;103983;1290;62249;-82
2023/04/25 05:42:39;;;;;;;;;;;;;;;19.66;43.52;99980.04;103941;1295;62207;-82
2023/04/25 05:45:05;;;;;;;;;;;;;;;19.66;43.71;99977.02;103775;1289;62035;-82
2023/04/25 05:47:30;;;;;;;;;;;;;;;19.66;43.71;99976.12;104401;1294;62401;-81
2023/04/25 05:49:56;;;;;;;;;;;;;;;19.66;43.80;99972.59;104564;1290;60279;-82
2023/04/25 05:52:22;;;;;;;;;;;;;;;19.65;43.76;99968.75;105078;1295;62148;-82
2023/04/25 05:54:49;;;;;;;;;;;;;;;19.64;43.80;99968.79;105150;1285;62202;-82
2023/04/25 05:57:24;;;;;;;;;;;;;;;19.62;43.84;99972.70;105113;1287;62068;-82
2023/04/25 05:59:50;;;;;;;;;;;;;;;19.58;43.91;99973.23;105429;1283;76382;-82
2023/04/25 06:02:16;;;;;;;;;;;;;;;19.54;44.10;99974.37;105690;1283;60507;-82
2023/04/25 06:04:43;;;;;;;;;;;;;;;19.54;44.11;99972.63;105762;1282;61906;-82
2023/04/25 06:07:08;;;;;;;;;;;;;;;19.54;44.30;99968.69;105316;1283;62082;-83
2023/04/25 06:09:34;;;;;;;;;;;;;;;19.55;44.35;99967.73;105375;1283;62101;-82
2023/04/25 06:12:01;;;;;;;;;;;;;;;19.55;44.31;99967.20;105218;1289;61926;-82
2023/04/25 06:14:27;;;;;;;;;;;;;;;19.55;44.38;99967.54;105526;1286;62047;-82
2023/04/25 06:16:52;;;;;;;;;;;;;;;19.55;44.43;99962.02;105449;1285;60779;-82
2023/04/25 06:19:18;;;;;;;;;;;;;;;19.56;44.52;99960.11;105972;1283;62271;-82
2023/04/25 06:21:43;;;;;;;;;;;;;;;19.56;44.46;99957.95;105531;1288;76453;-82
2023/04/25 06:24:09;;;;;;;;;;;;;;;19.57;44.59;99960.05;105483;1282;60878;-82
2023/04/25 06:26:34;;;;;;;;;;;;;;;19.58;44.49;99958.90;105189;1282;62102;-82
2023/04/25 06:29:00;;;;;;;;;;;;;;;19.58;44.51;99957.84;104877;1286;62069;-82
2023/04/25 06:31:25;;;;;;;;;;;;;;;19.58;44.54;99960.17;105048;1282;62197;-81
2023/04/25 06:33:54;;;;;;;;;;;;;;;19.56;44.56;99961.21;105361;1283;62141;-81
2023/04/25 06:36:24;;;;;;;;;;;;;;;19.53;44.63;99958.58;105440;1283;62137;-82
2023/04/25 06:38:50;;;;;;;;;;;;;;;19.53;44.70;99962.51;105049;1285;61986;-82
2023/04/25 06:41:17;;;;;;;;;;;;;;;19.54;44.64;99961.54;105098;1282;62093;-82
2023/04/25 06:43:42;;;;;;;;;;;;;;;19.55;44.57;99962.16;105134;1283;62137;-82
2023/04/25 06:46:08;;;;;;;;;;;;;;;19.55;44.67;99963.75;105269;1282;62066;-82
2023/04/25 06:48:33;;;;;;;;;;;;;;;19.57;44.73;99963.65;105393;1283;61003;-82
2023/04/25 06:50:59;;;;;;;;;;;;;;;19.57;44.76;99964.50;105548;1282;62174;-81
2023/04/25 06:53:24;;;;;;;;;;;;;;;19.58;44.67;99965.53;105574;1282;62187;-82
2023/04/25 06:55:51;;;;;;;;;;;;;;;19.58;44.69;99962.27;105536;1288;62158;-82
2023/04/25 06:58:17;;;;;;;;;;;;;;;19.58;44.72;99959.77;105772;1283;62094;-83
2023/04/25 07:00:42;;;;;;;;;;;;;;;19.58;44.84;99957.61;105817;1285;62159;-82
2023/04/25 07:03:08;;;;;;;;;;;;;;;19.57;44.95;99955.77;105937;1282;62143;-83
2023/04/25 07:05:33;;;;;;;;;;;;;;;19.55;44.89;99956.65;105383;1285;636503;-83
2023/04/25 07:07:59;;;;;;;;;;;;;;;19.54;45.29;99957.27;105832;1283;62089;-83
2023/04/25 07:10:25;;;;;;;;;;;;;;;19.53;45.32;99955.71;106022;1282;61741;-83
2023/04/25 07:12:50;;;;;;;;;;;;;;;19.53;45.31;99959.09;105917;1283;60172;-82
2023/04/25 07:15:16;;;;;;;;;;;;;;;19.55;45.30;99959.32;106011;1286;62006;-82
2023/04/25 07:17:42;;;;;;;;;;;;;;;19.57;45.41;99958.98;105916;1287;60180;-82
2023/04/25 07:20:09;;;;;;;;;;;;;;;19.59;45.46;99958.45;105683;1283;62078;-82
2023/04/25 07:22:35;;;;;;;;;;;;;;;19.60;45.51;99957.86;105973;1283;60372;-83
2023/04/25 07:25:00;;;;;;;;;;;;;;;19.62;45.40;99961.85;105501;1285;62115;-83
2023/04/25 07:27:26;;;;;;;;;;;;;;;19.62;45.60;99961.10;105621;1283;60394;-82
2023/04/25 07:29:51;;;;;;;;;;;;;;;19.64;45.65;99957.05;105497;1283;62225;-82
2023/04/25 07:32:17;;;;;;;;;;;;;;;19.64;45.65;99957.89;105488;1282;62066;-80
2023/04/25 07:34:42;;;;;;;;;;;;;;;19.65;45.65;99956.23;105602;1288;62292;-80
2023/04/25 07:37:08;;;;;;;;;;;;;;;19.66;45.44;99959.55;105684;1283;61980;-80
2023/04/25 07:39:33;;;;;;;;;;;;;;;19.67;45.63;99960.57;105372;1283;60139;-80
2023/04/25 07:42:00;;;;;;;;;;;;;;;19.67;45.63;99955.54;105489;1282;62277;-83
2023/04/25 07:44:25;;;;;;;;;;;;;;;19.68;45.72;99956.36;105665;1283;61703;-83
2023/04/25 07:46:51;;;;;;;;;;;;;;;19.68;45.70;99955.69;105623;1285;60559;-82
2023/04/25 07:49:17;;;;;;;;;;;;;;;19.67;45.64;99955.88;105588;1283;60126;-83
2023/04/25 07:51:45;;;;;;;;;;;;;;;19.68;45.72;99952.28;105221;1282;62175;-82
2023/04/25 07:54:13;;;;;;;;;;;;;;;19.67;45.92;99949.83;105434;1283;62161;-82
2023/04/25 07:56:38;;;;;;;;;;;;;;;19.67;46.07;99948.09;105385;1283;62063;-83
2023/04/25 07:59:05;;;;;;;;;;;;;;;19.65;46.15;99950.69;105622;1285;62258;-84
2023/04/25 08:01:31;;;;;;;;;;;;;;;19.58;46.21;99945.33;105775;1283;62229;-82
2023/04/25 08:03:56;;;;;;;;;;;;;;;19.58;46.34;99946.62;105889;1283;62209;-83
2023/04/25 08:06:21;;;;;;;;;;;;;;;19.55;46.46;99941.09;106011;1282;62190;-82
2023/04/25 08:08:47;;;;;;;;;;;;;;;19.54;46.47;99940.48;106032;1283;60431;-80
2023/04/25 08:11:12;;;;;;;;;;;;;;;19.55;46.57;99940.41;105951;1283;60892;-81
2023/04/25 08:13:38;;;;;;;;;;;;;;;19.55;46.42;99941.80;105918;1283;61516;-80
2023/04/25 08:16:03;;;;;;;;;;;;;;;19.55;46.62;99940.95;105996;1283;62421;-80
2023/04/25 08:18:29;;;;;;;;;;;;;;;19.53;46.65;99941.60;105963;1282;60517;-80
2023/04/25 08:20:56;;;;;;;;;;;;;;;19.53;46.66;99943.05;105668;1285;62098;-80
2023/04/25 08:23:21;;;;;;;;;;;;;;;19.54;46.63;99942.30;105394;1283;72861;-80
2023/04/25 08:25:47;;;;;;;;;;;;;;;19.55;46.64;99939.85;105583;1287;62178;-80
2023/04/25 08:28:12;;;;;;;;;;;;;;;19.57;46.67;99940.42;105139;1288;62094;-81
2023/04/25 08:30:38;;;;;;;;;;;;;;;19.57;46.70;99941.81;105429;1283;60941;-81
2023/04/25 08:33:04;;;;;;;;;;;;;;;19.58;46.77;99942.46;105775;1282;62070;-83
2023/04/25 08:35:29;;;;;;;;;;;;;;;19.58;46.70;99942.79;105530;1285;73227;-82
2023/04/25 08:37:55;;;;;;;;;;;;;;;19.58;46.78;99943.75;105996;1282;60515;-83
2023/04/25 08:40:25;;;;;;;;;;;;;;;19.57;46.87;99942.77;105728;1283;62036;-83
2023/04/25 08:42:52;;;;;;;;;;;;;;;19.55;46.80;99947.85;105432;1283;60400;-83
2023/04/25 08:45:17;;;;;;;;;;;;;;;19.55;46.93;99949.89;105592;1283;62082;-82
2023/04/25 08:47:45;;;;;;;;;;;;;;;19.54;46.90;99952.61;105619;1283;62173;-82
2023/04/25 08:50:10;;;;;;;;;;;;;;;19.53;46.90;99953.73;105468;1287;61452;-82
2023/04/25 08:52:39;;;;;;;;;;;;;;;19.53;46.86;99956.58;105595;1282;62182;-82
2023/04/25 08:55:06;;;;;;;;;;;;;;;19.54;46.76;99956.55;106147;1282;73675;-82
2023/04/25 08:57:32;;;;;;;;;;;;;;;19.54;46.89;99954.42;105114;1284;74989;-81
2023/04/25 08:59:57;;;;;;;;;;;;;;;19.53;46.85;99955.03;105176;1283;62145;-82
2023/04/25 09:02:24;;;;;;;;;;;;;;;19.46;46.92;99958.92;105210;1282;62168;-82
2023/04/25 09:04:49;;;;;;;;;;;;;;;19.36;46.96;99960.60;105661;1288;61641;-82
2023/04/25 09:07:18;;;;;;;;;;;;;;;19.33;47.25;99960.16;105737;1285;62251;-81
2023/04/25 09:09:44;;;;;;;;;;;;;;;19.31;47.17;99961.16;106061;1283;60642;-82
2023/04/25 09:12:09;;;;;;;;;;;;;;;19.30;47.32;99962.67;105955;1282;62094;-81
2023/04/25 09:14:35;;;;;;;;;;;;;;;19.31;47.35;99962.42;105647;1283;62194;-81
2023/04/25 09:17:01;;;;;;;;;;;;;;;19.33;47.47;99965.50;105203;1282;62171;-81
2023/04/25 09:19:26;;;;;;;;;;;;;;;19.35;47.32;99963.04;105334;1283;60533;-81
2023/04/25 09:21:59;;;;;;;;;;;;;;;19.37;47.35;99963.40;105788;1283;60894;-81
2023/04/25 09:24:34;;;;;;;;;;;;;;;19.39;47.42;99959.67;105153;1282;62644;-81
2023/04/25 09:27:01;;;;;;;;;;;;;;;19.41;47.32;99957.04;104797;1283;72342;-82
2023/04/25 09:29:31;;;;;;;;;;;;;;;19.41;47.37;99956.96;105008;1283;76276;-81
2023/04/25 09:32:16;;;;;;;;;;;;;;;19.43;47.24;99961.83;105450;1284;61976;-81
2023/04/25 09:34:42;;;;;;;;;;;;;;;19.44;47.29;99963.39;104878;1282;62114;-81
2023/04/25 09:37:12;;;;;;;;;;;;;;;19.45;47.26;99967.92;104765;1282;62175;-81
2023/04/25 09:39:38;;;;;;;;;;;;;;;19.46;47.34;99958.04;104801;1282;75950;-81
2023/04/25 09:42:04;;;;;;;;;;;;;;;19.47;47.29;99957.61;104621;1282;62203;-81
2023/04/25 09:44:30;;;;;;;;;;;;;;;19.48;47.38;99953.11;104866;1282;62270;-81
2023/04/25 09:46:56;;;;;;;;;;;;;;;19.48;47.15;99954.86;104372;1283;62706;-82
2023/04/25 09:49:22;;;;;;;;;;;;;;;19.48;47.18;99949.36;104176;1282;62194;-82
2023/04/25 09:51:56;;;;;;;;;;;;;;;19.47;47.06;99952.64;104319;1283;62610;-82
2023/04/25 09:54:23;;;;;;;;;;;;;;;19.42;47.26;99952.85;104267;1284;62055;-83
2023/04/25 09:56:48;;;;;;;;;;;;;;;19.38;47.29;99948.48;104401;1283;62095;-81
2023/04/25 09:59:14;;;;;;;;;;;;;;;19.39;47.42;99948.60;104362;1283;62165;-82
2023/04/25 10:01:41;;;;;;;;;;;;;;;19.39;47.44;99945.52;104251;1282;62488;-83
2023/04/25 10:04:07;;;;;;;;;;;;;;;19.40;47.34;99943.36;104123;1283;62181;-83
2023/04/25 10:06:32;;;;;;;;;;;;;;;19.37;47.40;99936.25;104117;1282;62139;-83
2023/04/25 10:08:58;;;;;;;;;;;;;;;19.30;47.31;99932.02;104090;1282;62155;-83
2023/04/25 10:11:24;;;;;;;;;;;;;;;19.26;47.50;99925.89;104221;1282;62185;-83
2023/04/25 10:13:50;;;;;;;;;;;;;;;19.25;47.40;99924.88;104148;1285;62171;-81
2023/04/25 10:16:16;;;;;;;;;;;;;;;19.15;47.57;99919.02;104372;1283;62241;-82
2023/04/25 10:18:42;;;;;;;;;;;;;;;18.99;47.83;99919.94;104207;1282;62084;-83
2023/04/25 10:21:08;;;;;;;;;;;;;;;18.94;47.98;99914.94;104096;1283;62347;-82
2023/04/25 10:23:36;;;;;;;;;;;;;;;18.96;48.14;99917.81;104268;1283;62139;-83
2023/04/25 10:26:03;;;;;;;;;;;;;;;18.99;48.11;99910.11;104370;1282;62187;-83
2023/04/25 10:28:29;;;;;;;;;;;;;;;19.02;47.95;99902.95;104212;1283;63364;-83
2023/04/25 10:30:58;;;;;;;;;;;;;;;18.95;48.15;99900.21;104412;1285;62378;-83
2023/04/25 10:33:34;;;;;;;;;;;;;;;18.89;48.44;99898.73;104376;1283;62174;-83
2023/04/25 10:36:13;;;;;;;;;;;;;;;18.84;48.46;99897.85;104269;1282;62243;-83
2023/04/25 10:38:44;;;;;;;;;;;;;;;18.78;48.62;99888.87;103990;1285;73390;-83
2023/04/25 10:41:10;;;;;;;;;;;;;;;18.68;48.86;99879.48;103954;1283;76272;-83
2023/04/25 10:43:41;;;;;;;;;;;;;;;18.65;49.04;99886.58;103920;1283;62162;-82
2023/04/25 10:46:23;;;;;;;;;;;;;;;18.71;48.98;99883.50;104311;1286;62110;-82
2023/04/25 10:48:55;;;;;;;;;;;;;;;18.79;49.09;99888.39;104380;1285;72401;-82
2023/04/25 10:51:24;;;;;;;;;;;;;;;18.87;48.97;99890.81;104097;1282;75250;-83
2023/04/25 10:53:59;;;;;;;;;;;;;;;18.95;48.94;99888.50;104103;1282;62271;-82
2023/04/25 10:56:47;;;;;;;;;;;;;;;19.02;48.87;99890.48;104009;1283;62079;-83
2023/04/25 10:59:19;;;;;;;;;;;;;;;19.08;48.81;99890.71;104012;1282;71630;-81
2023/04/25 11:01:51;;;;;;;;;;;;;;;19.13;48.82;99885.69;103840;1288;76333;-83
2023/04/25 11:04:26;;;;;;;;;;;;;;;19.18;48.66;99881.72;104178;1283;62200;-82
2023/04/25 11:06:56;;;;;;;;;;;;;;;19.22;48.64;99875.48;104612;1282;62060;-82
2023/04/25 11:09:23;;;;;;;;;;;;;;;19.28;48.87;99877.58;104090;1283;72191;-82
2023/04/25 11:11:55;;;;;;;;;;;;;;;19.30;48.65;99872.73;104244;1282;75233;-82
2023/04/25 11:14:22;;;;;;;;;;;;;;;19.33;48.61;99869.16;104098;1282;62089;-83
2023/04/25 11:16:52;;;;;;;;;;;;;;;19.34;48.50;99867.11;104029;1286;62438;-83
2023/04/25 11:19:20;;;;;;;;;;;;;;;19.33;48.63;99864.34;104328;1283;73325;-83
2023/04/25 11:21:45;;;;;;;;;;;;;;;19.31;48.63;99861.79;104189;1285;76340;-83
2023/04/25 11:24:11;;;;;;;;;;;;;;;19.30;48.76;99853.81;104330;1282;62194;-82
2023/04/25 11:26:41;;;;;;;;;;;;;;;19.29;48.88;99851.06;104452;1282;62175;-82
2023/04/25 11:29:07;;;;;;;;;;;;;;;19.28;48.94;99848.46;104251;1283;73270;-83
2023/04/25 11:31:33;;;;;;;;;;;;;;;19.30;48.78;99845.30;104162;1283;76131;-83
2023/04/25 11:33:58;;;;;;;;;;;;;;;19.32;48.84;99836.04;104020;1286;62188;-83
2023/04/25 11:36:24;;;;;;;;;;;;;;;19.35;48.72;99829.40;103860;1282;63312;-84
2023/04/25 11:38:53;;;;;;;;;;;;;;;19.36;48.79;99826.30;103954;1288;62757;-83
2023/04/25 11:41:20;;;;;;;;;;;;;;;19.37;48.80;99820.66;103970;1283;62200;-84
2023/04/25 11:43:45;;;;;;;;;;;;;;;19.38;48.82;99812.66;104013;1286;62197;-84
2023/04/25 11:46:11;;;;;;;;;;;;;;;19.39;48.73;99813.30;103995;1282;62198;-82
2023/04/25 11:48:38;;;;;;;;;;;;;;;19.39;48.95;99810.65;103763;1283;62179;-82
2023/04/25 11:51:27;;;;;;;;;;;;;;;19.41;48.78;99806.77;104058;1282;63422;-82
2023/04/25 11:53:53;;;;;;;;;;;;;;;19.42;48.91;99800.06;103059;1294;62225;-83
2023/04/25 11:56:20;;;;;;;;;;;;;;;19.44;48.75;99796.20;103321;1294;62164;-83
2023/04/25 11:58:55;;;;;;;;;;;;;;;19.45;48.77;99789.48;103339;1291;62261;-82
2023/04/25 12:01:30;;;;;;;;;;;;;;;19.47;48.79;99785.61;103475;1291;76085;-82
2023/04/25 12:03:57;;;;;;;;;;;;;;;19.48;48.80;99785.37;103313;1291;63375;-81
2023/04/25 12:06:26;;;;;;;;;;;;;;;19.48;48.78;99779.98;103249;1291;62104;-82
2023/04/25 12:09:03;;;;;;;;;;;;;;;19.50;48.79;99777.50;103121;1294;73601;-83
2023/04/25 12:11:30;;;;;;;;;;;;;;;19.52;48.83;99776.86;103248;1290;75269;-82
2023/04/25 12:14:01;;;;;;;;;;;;;;;19.53;48.66;99785.12;103516;1291;62034;-81
2023/04/25 12:16:27;;;;;;;;;;;;;;;19.53;48.87;99831.65;103577;1291;62108;-81
2023/04/25 12:18:53;;;;;;;;;;;;;;;19.55;48.69;99904.54;103846;1291;62115;-81
2023/04/25 12:21:20;;;;;;;;;;;;;;;19.56;48.94;99934.24;103653;1291;62417;-81
2023/04/25 12:23:46;;;;;;;;;;;;;;;19.57;48.88;99919.38;103711;1291;62120;-81
2023/04/25 12:26:11;;;;;;;;;;;;;;;19.57;48.96;99874.53;103518;1291;62418;-80
2023/04/25 12:28:38;;;;;;;;;;;;;;;19.58;48.89;99848.61;103155;1291;65011;-83
2023/04/25 12:31:04;;;;;;;;;;;;;;;19.57;48.83;99837.39;103376;1282;62172;-83
2023/04/25 12:33:31;;;;;;;;;;;;;;;19.58;48.99;99838.63;103688;1289;62699;-82